createdAt,value
2019-03-01T00:02:05.662Z,100764.88
2019-03-01T00:08:18.416Z,100772.92
2019-03-01T00:18:04.252Z,100762.53
2019-03-01T00:21:11.709Z,100760.94
2019-03-01T00:24:19.178Z,100751.95
2019-03-01T00:30:51.809Z,100744.15
2019-03-01T00:34:17.253Z,100746.66
2019-03-01T00:37:22.804Z,100750.84
2019-03-01T00:40:28.367Z,100748.67
2019-03-01T00:43:35.833Z,100746.53
2019-03-01T00:46:01.609Z,100745.31
2019-03-01T00:48:27.404Z,100739.91
2019-03-01T00:50:53.195Z,100730.23
2019-03-01T00:53:18.992Z,100731.05
2019-03-01T00:55:44.768Z,100727.17
2019-03-01T00:58:10.548Z,100735.36
2019-03-01T01:00:56.239Z,100734.66
2019-03-01T01:03:22.031Z,100725.95
2019-03-01T01:05:47.827Z,100735.14
2019-03-01T01:08:13.620Z,100734.48
2019-03-01T01:10:39.412Z,100730.98
2019-03-01T01:13:05.196Z,100723.34
2019-03-01T01:15:30.988Z,100724.58
2019-03-01T01:17:57.151Z,100723.96
2019-03-01T01:20:22.935Z,100720.77
2019-03-01T01:22:48.714Z,100719.23
2019-03-01T01:25:14.518Z,100716.25
2019-03-01T01:27:41.094Z,100716.91
2019-03-01T01:30:49.786Z,100710.70
2019-03-01T01:33:16.117Z,100713.20
2019-03-01T01:35:41.947Z,100711.16
2019-03-01T01:38:07.720Z,100715.16
2019-03-01T01:40:33.510Z,100708.45
2019-03-01T01:42:59.288Z,100707.42
2019-03-01T01:45:25.093Z,100703.06
2019-03-01T01:47:50.868Z,100707.77
2019-03-01T01:50:16.671Z,100699.36
2019-03-01T01:52:42.575Z,100696.00
2019-03-01T01:55:08.369Z,100695.97
2019-03-01T01:57:34.170Z,100687.30
2019-03-01T01:59:59.949Z,100688.70
2019-03-01T02:02:25.751Z,100689.55
2019-03-01T02:04:51.639Z,100684.82
2019-03-01T02:07:17.589Z,100692.58
2019-03-01T02:09:43.390Z,100686.03
2019-03-01T02:12:09.186Z,100677.02
2019-03-01T02:14:35.291Z,100680.85
2019-03-01T02:17:01.165Z,100681.34
2019-03-01T02:19:26.939Z,100690.41
2019-03-01T02:21:52.738Z,100675.20
2019-03-01T02:24:19.590Z,100675.13
2019-03-01T02:26:45.350Z,100674.05
2019-03-01T02:29:11.138Z,100673.23
2019-03-01T02:34:50.383Z,100671.84
2019-03-01T02:37:16.278Z,100671.84
2019-03-01T02:39:42.060Z,100667.12
2019-03-01T02:42:07.862Z,100666.56
2019-03-01T02:44:33.638Z,100669.09
2019-03-01T02:46:59.424Z,100669.09
2019-03-01T02:49:25.212Z,100664.10
2019-03-01T02:51:50.996Z,100673.15
2019-03-01T02:54:16.772Z,100674.52
2019-03-01T02:56:42.574Z,100675.47
2019-03-01T02:59:08.349Z,100677.45
2019-03-01T03:01:34.152Z,100676.11
2019-03-01T03:03:59.929Z,100674.73
2019-03-01T03:08:59.489Z,100668.11
2019-03-01T03:11:25.280Z,100661.35
2019-03-01T03:13:51.069Z,100662.62
2019-03-01T03:16:16.858Z,100656.12
2019-03-01T03:18:42.649Z,100659.31
2019-03-01T03:21:08.460Z,100663.97
2019-03-01T03:23:34.226Z,100653.41
2019-03-01T03:26:00.007Z,100659.09
2019-03-01T03:28:25.908Z,100660.75
2019-03-01T03:30:51.675Z,100663.24
2019-03-01T03:33:17.474Z,100657.59
2019-03-01T03:35:43.253Z,100659.75
2019-03-01T03:38:09.051Z,100651.40
2019-03-01T03:40:34.827Z,100654.27
2019-03-01T03:43:00.731Z,100650.06
2019-03-01T03:45:26.513Z,100654.06
2019-03-01T03:47:52.325Z,100653.77
2019-03-01T03:50:18.105Z,100650.61
2019-03-01T03:52:43.904Z,100655.09
2019-03-01T03:55:29.565Z,100657.25
2019-03-01T03:57:55.357Z,100657.86
2019-03-01T04:01:02.819Z,100658.89
2019-03-01T04:03:28.626Z,100673.14
2019-03-01T04:05:54.398Z,100672.97
2019-03-01T04:08:20.210Z,100668.97
2019-03-01T04:10:45.974Z,100669.14
2019-03-01T04:13:11.917Z,100668.84
2019-03-01T04:15:37.705Z,100671.04
2019-03-01T04:18:03.532Z,100664.15
2019-03-01T04:20:29.275Z,100677.20
2019-03-01T04:22:55.076Z,100666.91
2019-03-01T04:25:20.845Z,100666.20
2019-03-01T04:27:46.639Z,100664.36
2019-03-01T04:30:32.440Z,100660.56
2019-03-01T04:32:58.224Z,100661.69
2019-03-01T04:35:23.988Z,100657.47
2019-03-01T04:37:49.878Z,100650.91
2019-03-01T04:40:15.666Z,100655.25
2019-03-01T04:42:41.447Z,100657.80
2019-03-01T04:45:48.915Z,100654.61
2019-03-01T04:50:52.848Z,100662.69
2019-03-01T04:53:18.653Z,100664.71
2019-03-01T04:55:44.434Z,100666.23
2019-03-01T04:58:10.344Z,100666.58
2019-03-01T05:00:36.139Z,100661.45
2019-03-01T05:03:01.912Z,100656.94
2019-03-01T05:05:47.603Z,100645.86
2019-03-01T05:08:13.397Z,100645.86
2019-03-01T05:10:39.191Z,100659.09
2019-03-01T05:13:04.973Z,100664.47
2019-03-01T05:15:30.757Z,100662.28
2019-03-01T05:17:56.531Z,100662.40
2019-03-01T05:20:22.319Z,100670.80
2019-03-01T05:22:48.100Z,100660.98
2019-03-01T05:25:13.887Z,100662.45
2019-03-01T05:27:39.667Z,100655.78
2019-03-01T05:30:47.133Z,100654.14
2019-03-01T05:33:12.913Z,100652.80
2019-03-01T05:35:38.703Z,100658.97
2019-03-01T05:38:04.482Z,100662.10
2019-03-01T05:40:30.269Z,100657.75
2019-03-01T05:42:56.037Z,100663.96
2019-03-01T05:48:35.604Z,100670.11
2019-03-01T05:51:01.387Z,100683.59
2019-03-01T05:53:27.159Z,100685.55
2019-03-01T05:55:52.959Z,100684.28
2019-03-01T05:58:38.622Z,100687.64
2019-03-01T06:01:46.106Z,100684.84
2019-03-01T06:04:51.694Z,100684.97
2019-03-01T06:07:59.142Z,100683.80
2019-03-01T06:11:06.618Z,100687.69
2019-03-01T06:17:59.136Z,100693.72
2019-03-01T06:21:04.699Z,100684.86
2019-03-01T06:24:12.152Z,100691.59
2019-03-01T06:30:33.219Z,100702.08
2019-03-01T06:33:38.790Z,100705.41
2019-03-01T06:40:18.177Z,100694.95
2019-03-01T06:43:43.639Z,100709.34
2019-03-01T06:46:51.093Z,100706.44
2019-03-01T06:52:24.072Z,100706.39
2019-03-01T06:54:49.860Z,100709.98
2019-03-01T06:57:15.649Z,100706.62
2019-03-01T06:59:41.421Z,100702.19
2019-03-01T07:04:40.795Z,100686.99
2019-03-01T07:07:06.603Z,100705.44
2019-03-01T07:09:32.400Z,100703.62
2019-03-01T07:11:58.189Z,100712.64
2019-03-01T07:14:23.958Z,100714.36
2019-03-01T07:16:50.065Z,100705.06
2019-03-01T07:19:15.809Z,100704.89
2019-03-01T07:21:41.610Z,100714.76
2019-03-01T07:24:07.494Z,100711.66
2019-03-01T07:26:35.074Z,100701.63
2019-03-01T07:29:00.856Z,100707.82
2019-03-01T07:31:26.662Z,100708.81
2019-03-01T07:36:39.748Z,100710.16
2019-03-01T07:42:32.595Z,100714.45
2019-03-01T07:44:58.371Z,100725.23
2019-03-01T07:47:24.162Z,100722.09
2019-03-01T07:49:49.936Z,100720.62
2019-03-01T07:52:15.728Z,100724.11
2019-03-01T07:54:41.506Z,100729.16
2019-03-01T07:57:07.303Z,100726.09
2019-03-01T07:59:38.024Z,100729.11
2019-03-01T08:02:03.709Z,100734.45
2019-03-01T08:04:29.541Z,100745.41
2019-03-01T08:06:56.163Z,100744.06
2019-03-01T08:09:22.093Z,100746.17
2019-03-01T08:11:47.818Z,100750.83
2019-03-01T08:14:13.613Z,100752.09
2019-03-01T08:16:39.395Z,100755.09
2019-03-01T08:19:05.197Z,100757.91
2019-03-01T08:21:30.958Z,100767.12
2019-03-01T08:23:56.746Z,100769.09
2019-03-01T08:26:22.515Z,100762.07
2019-03-01T08:28:48.303Z,100766.08
2019-03-01T08:31:14.079Z,100766.94
2019-03-01T08:33:43.469Z,100761.87
2019-03-01T08:36:07.567Z,100769.14
2019-03-01T08:38:33.542Z,100769.31
2019-03-01T08:40:59.336Z,100774.08
2019-03-01T08:43:25.145Z,100770.45
2019-03-01T08:45:50.923Z,100776.78
2019-03-01T08:48:16.692Z,100771.16
2019-03-01T08:50:42.487Z,100772.29
2019-03-01T08:53:11.470Z,100780.34
2019-03-01T08:55:38.881Z,100777.33
2019-03-01T08:58:06.881Z,100783.06
2019-03-01T09:00:59.350Z,100777.44
2019-03-01T09:04:21.414Z,100775.42
2019-03-01T09:06:46.206Z,100767.15
2019-03-01T09:09:12.017Z,100768.98
2019-03-01T09:11:37.786Z,100771.53
2019-03-01T09:14:03.586Z,100771.67
2019-03-01T09:16:29.353Z,100774.18
2019-03-01T09:18:55.130Z,100777.36
2019-03-01T09:21:20.920Z,100779.20
2019-03-01T09:23:47.890Z,100778.44
2019-03-01T09:26:16.683Z,100782.11
2019-03-01T09:28:42.065Z,100786.42
2019-03-01T09:31:07.851Z,100789.43
2019-03-01T09:33:56.343Z,100791.45
2019-03-01T09:36:41.118Z,100791.45
2019-03-01T09:39:50.416Z,100794.82
2019-03-01T09:42:16.339Z,100798.84
2019-03-01T09:44:42.141Z,100799.04
2019-03-01T09:47:07.920Z,100785.84
2019-03-01T09:49:33.713Z,100789.34
2019-03-01T09:51:59.488Z,100792.38
2019-03-01T09:54:25.278Z,100789.70
2019-03-01T09:56:51.065Z,100776.14
2019-03-01T09:59:16.844Z,100778.16
2019-03-01T10:01:42.624Z,100784.19
2019-03-01T10:04:28.292Z,100789.55
2019-03-01T10:06:54.086Z,100789.55
2019-03-01T10:09:19.880Z,100803.63
2019-03-01T10:11:45.679Z,100799.27
2019-03-01T10:14:11.467Z,100798.95
2019-03-01T10:16:37.272Z,100805.31
2019-03-01T10:19:03.065Z,100800.60
2019-03-01T10:21:28.872Z,100801.77
2019-03-01T10:23:54.668Z,100797.60
2019-03-01T10:26:20.455Z,100803.79
2019-03-01T10:28:46.251Z,100813.67
2019-03-01T10:31:12.063Z,100807.80
2019-03-01T10:33:37.853Z,100818.70
2019-03-01T10:36:03.735Z,100818.88
2019-03-01T10:38:29.527Z,100814.98
2019-03-01T10:41:15.212Z,100800.56
2019-03-01T10:43:40.990Z,100800.56
2019-03-01T10:46:06.770Z,100821.44
2019-03-01T10:48:32.605Z,100820.77
2019-03-01T10:50:58.352Z,100830.98
2019-03-01T10:53:24.146Z,100827.34
2019-03-01T10:55:49.929Z,100831.06
2019-03-01T10:58:15.734Z,100827.73
2019-03-01T11:00:41.512Z,100822.70
2019-03-01T11:03:07.405Z,100828.89
2019-03-01T11:05:33.202Z,100831.91
2019-03-01T11:07:59.005Z,100837.09
2019-03-01T11:10:44.695Z,100851.86
2019-03-01T11:13:52.176Z,100848.14
2019-03-01T11:16:17.961Z,100853.66
2019-03-01T11:18:43.771Z,100853.38
2019-03-01T11:21:09.564Z,100859.17
2019-03-01T11:23:35.458Z,100870.84
2019-03-01T11:26:01.245Z,100871.79
2019-03-01T11:28:27.035Z,100866.47
2019-03-01T11:30:52.827Z,100864.84
2019-03-01T11:33:18.624Z,100864.39
2019-03-01T11:35:44.402Z,100864.98
2019-03-01T11:38:10.209Z,100866.99
2019-03-01T11:41:17.655Z,100871.16
2019-03-01T11:44:03.465Z,100870.53
2019-03-01T11:46:29.260Z,100870.53
2019-03-01T11:48:55.051Z,100875.77
2019-03-01T11:51:20.837Z,100878.02
2019-03-01T11:53:46.644Z,100874.33
2019-03-01T11:56:12.425Z,100870.17
2019-03-01T11:58:38.218Z,100873.86
2019-03-01T12:01:04.008Z,100874.85
2019-03-01T12:03:29.812Z,100864.68
2019-03-01T12:05:55.621Z,100864.33
2019-03-01T12:08:21.500Z,100857.41
2019-03-01T12:10:47.383Z,100863.05
2019-03-01T12:13:13.216Z,100866.73
2019-03-01T12:18:14.054Z,100877.42
2019-03-01T12:20:39.849Z,100882.80
2019-03-01T12:23:05.647Z,100876.42
2019-03-01T12:25:31.470Z,100877.09
2019-03-01T12:27:57.272Z,100872.05
2019-03-01T12:33:36.835Z,100871.38
2019-03-01T12:36:02.721Z,100875.48
2019-03-01T12:38:48.412Z,100880.07
2019-03-01T12:44:21.417Z,100863.20
2019-03-01T12:47:07.101Z,100865.80
2019-03-01T12:49:32.904Z,100865.80
2019-03-01T12:51:58.711Z,100871.38
2019-03-01T12:54:24.524Z,100869.66
2019-03-01T12:56:50.307Z,100868.13
2019-03-01T12:59:16.105Z,100865.50
2019-03-01T13:01:41.897Z,100865.60
2019-03-01T13:04:49.883Z,100859.24
2019-03-01T13:07:17.074Z,100867.31
2019-03-01T13:09:42.889Z,100879.76
2019-03-01T13:12:08.680Z,100872.65
2019-03-01T13:14:36.721Z,100878.98
2019-03-01T13:17:02.636Z,100872.59
2019-03-01T13:19:49.762Z,100881.30
2019-03-01T13:22:15.553Z,100881.30
2019-03-01T13:27:39.480Z,100892.48
2019-03-01T13:30:46.968Z,100892.48
2019-03-01T13:33:12.742Z,100901.41
2019-03-01T13:35:38.539Z,100892.16
2019-03-01T13:38:04.313Z,100912.02
2019-03-01T13:40:30.120Z,100909.14
2019-03-01T13:42:55.895Z,100902.63
2019-03-01T13:46:03.367Z,100912.08
2019-03-01T13:48:29.145Z,100915.11
2019-03-01T13:50:54.959Z,100912.74
2019-03-01T13:53:20.736Z,100913.80
2019-03-01T13:55:46.535Z,100906.90
2019-03-01T13:58:12.317Z,100907.85
2019-03-01T14:00:38.113Z,100906.31
2019-03-01T14:03:03.880Z,100914.24
2019-03-01T14:05:29.679Z,100911.60
2019-03-01T14:07:56.802Z,100905.75
2019-03-01T14:10:43.223Z,100908.05
2019-03-01T14:13:11.208Z,100912.41
2019-03-01T14:15:38.546Z,100905.46
2019-03-01T14:18:04.439Z,100909.62
2019-03-01T14:20:30.221Z,100896.84
2019-03-01T14:22:56.016Z,100899.48
2019-03-01T14:25:22.152Z,100911.55
2019-03-01T14:27:47.961Z,100912.36
2019-03-01T14:30:33.596Z,100904.97
2019-03-01T14:32:59.401Z,100913.38
2019-03-01T14:35:26.798Z,100900.20
2019-03-01T14:37:55.349Z,100903.24
2019-03-01T14:40:40.447Z,100883.33
2019-03-01T14:43:06.271Z,100883.33
2019-03-01T14:46:13.763Z,100901.42
2019-03-01T14:48:59.429Z,100905.66
2019-03-01T14:51:25.254Z,100905.66
2019-03-01T14:53:51.038Z,100903.03
2019-03-01T14:56:58.631Z,100906.86
2019-03-01T15:00:06.067Z,100904.23
2019-03-01T15:03:16.157Z,100904.23
2019-03-01T15:05:41.954Z,100914.50
2019-03-01T15:08:07.772Z,100910.14
2019-03-01T15:10:35.620Z,100916.89
2019-03-01T15:13:02.685Z,100919.48
2019-03-01T15:15:30.017Z,100921.72
2019-03-01T15:17:57.044Z,100920.83
2019-03-01T15:20:24.350Z,100926.69
2019-03-01T15:22:51.696Z,100924.80
2019-03-01T15:25:17.497Z,100926.49
2019-03-01T15:27:43.288Z,100922.51
2019-03-01T15:30:28.942Z,100917.14
2019-03-01T15:32:54.735Z,100920.57
2019-03-01T15:35:20.512Z,100925.80
2019-03-01T15:37:46.303Z,100921.44
2019-03-01T15:40:32.656Z,100924.59
2019-03-01T15:42:58.485Z,100924.59
2019-03-01T15:45:24.265Z,100928.14
2019-03-01T15:47:50.519Z,100928.44
2019-03-01T15:50:17.849Z,100928.08
2019-03-01T15:52:45.710Z,100928.28
2019-03-01T15:55:11.788Z,100929.34
2019-03-01T15:57:39.164Z,100935.73
2019-03-01T16:00:46.660Z,100934.53
2019-03-01T16:03:12.433Z,100939.52
2019-03-01T16:05:38.359Z,100947.58
2019-03-01T16:08:05.501Z,100954.69
2019-03-01T16:10:32.987Z,100956.73
2019-03-01T16:12:59.576Z,100960.23
2019-03-01T16:15:25.351Z,100967.44
2019-03-01T16:17:51.140Z,100965.77
2019-03-01T16:23:30.425Z,100971.28
2019-03-01T16:25:57.761Z,100977.19
2019-03-01T16:28:23.567Z,100974.53
2019-03-01T16:30:49.642Z,100982.78
2019-03-01T16:33:17.041Z,100972.22
2019-03-01T16:35:42.819Z,100977.28
2019-03-01T16:38:08.599Z,100984.99
2019-03-01T16:40:34.397Z,100975.63
2019-03-01T16:43:00.169Z,100978.98
2019-03-01T16:45:25.959Z,100988.73
2019-03-01T16:47:51.731Z,100990.23
2019-03-01T16:50:59.204Z,100998.45
2019-03-01T16:53:25.000Z,100999.11
2019-03-01T16:55:50.765Z,100998.11
2019-03-01T16:58:19.039Z,101000.42
2019-03-01T17:00:44.837Z,101003.39
2019-03-01T17:03:52.841Z,101016.46
2019-03-01T17:06:19.983Z,101011.74
2019-03-01T17:08:45.775Z,101014.38
2019-03-01T17:14:25.605Z,101028.10
2019-03-01T17:16:51.404Z,101027.39
2019-03-01T17:19:17.184Z,101027.91
2019-03-01T17:21:42.979Z,101031.22
2019-03-01T17:24:08.764Z,101025.32
2019-03-01T17:26:34.543Z,101038.80
2019-03-01T17:29:03.171Z,101039.92
2019-03-01T17:31:28.026Z,101037.59
2019-03-01T17:33:53.794Z,101048.58
2019-03-01T17:36:19.594Z,101046.20
2019-03-01T17:38:46.196Z,101051.68
2019-03-01T17:41:13.067Z,101053.11
2019-03-01T17:43:38.840Z,101055.96
2019-03-01T17:46:04.626Z,101058.46
2019-03-01T17:48:30.400Z,101070.33
2019-03-01T17:50:56.192Z,101067.48
2019-03-01T17:53:21.979Z,101063.64
2019-03-01T17:55:47.781Z,101064.77
2019-03-01T17:58:13.547Z,101071.33
2019-03-01T18:03:13.171Z,101061.53
2019-03-01T18:05:40.542Z,101067.05
2019-03-01T18:08:06.655Z,101068.34
2019-03-01T18:10:33.078Z,101071.83
2019-03-01T18:13:00.256Z,101082.17
2019-03-01T18:15:26.037Z,101081.95
2019-03-01T18:17:52.406Z,101077.95
2019-03-01T18:20:19.513Z,101076.27
2019-03-01T18:22:45.299Z,101078.64
2019-03-01T18:28:38.810Z,101079.28
2019-03-01T18:31:05.825Z,101083.39
2019-03-01T18:33:31.625Z,101080.81
2019-03-01T18:35:57.400Z,101090.02
2019-03-01T18:38:23.190Z,101088.55
2019-03-01T18:40:51.790Z,101094.61
2019-03-01T18:43:18.169Z,101094.87
2019-03-01T18:45:44.354Z,101094.39
2019-03-01T18:48:10.145Z,101093.88
2019-03-01T18:51:17.631Z,101090.38
2019-03-01T18:53:45.460Z,101089.91
2019-03-01T18:56:11.115Z,101101.44
2019-03-01T18:58:36.918Z,101103.99
2019-03-01T19:04:30.046Z,101100.88
2019-03-01T19:06:55.859Z,101106.23
2019-03-01T19:09:36.290Z,101107.80
2019-03-01T19:12:02.095Z,101107.80
2019-03-01T19:14:27.883Z,101114.83
2019-03-01T19:16:53.687Z,101108.82
2019-03-01T19:19:19.631Z,101106.14
2019-03-01T19:21:45.687Z,101108.91
2019-03-01T19:24:11.528Z,101103.34
2019-03-01T19:26:37.392Z,101107.98
2019-03-01T19:29:03.658Z,101109.67
2019-03-01T19:31:31.095Z,101101.90
2019-03-01T19:33:56.921Z,101110.09
2019-03-01T19:36:22.726Z,101108.80
2019-03-01T19:38:48.543Z,101108.59
2019-03-01T19:41:14.332Z,101107.95
2019-03-01T19:43:41.715Z,101109.92
2019-03-01T19:46:07.886Z,101113.52
2019-03-01T19:48:34.526Z,101112.00
2019-03-01T19:51:21.804Z,101105.27
2019-03-01T19:53:48.592Z,101106.95
2019-03-01T19:56:14.765Z,101114.11
2019-03-01T19:58:44.216Z,101113.34
2019-03-01T20:01:09.130Z,101107.48
2019-03-01T20:03:35.122Z,101106.65
2019-03-01T20:06:00.904Z,101103.67
2019-03-01T20:08:46.603Z,101106.95
2019-03-01T20:11:12.386Z,101106.95
2019-03-01T20:13:38.504Z,101111.78
2019-03-01T20:16:04.584Z,101107.95
2019-03-01T20:18:30.869Z,101109.61
2019-03-01T20:20:56.641Z,101109.39
2019-03-01T20:23:22.917Z,101113.42
2019-03-01T20:25:51.034Z,101123.00
2019-03-01T20:28:16.689Z,101128.19
2019-03-01T20:31:04.890Z,101126.62
2019-03-01T20:33:30.066Z,101126.62
2019-03-01T20:35:56.062Z,101131.67
2019-03-01T20:38:22.305Z,101135.82
2019-03-01T20:40:48.419Z,101136.17
2019-03-01T20:43:14.208Z,101136.47
2019-03-01T20:45:40.114Z,101134.81
2019-03-01T20:48:06.182Z,101139.61
2019-03-01T20:50:32.151Z,101131.74
2019-03-01T20:52:57.923Z,101138.91
2019-03-01T20:55:24.065Z,101139.24
2019-03-01T20:57:51.788Z,101138.55
2019-03-01T21:01:02.015Z,101140.64
2019-03-01T21:03:30.010Z,101140.81
2019-03-01T21:05:55.227Z,101144.12
2019-03-01T21:08:21.180Z,101146.50
2019-03-01T21:10:50.091Z,101145.81
2019-03-01T21:13:15.013Z,101144.61
2019-03-01T21:15:40.803Z,101143.13
2019-03-01T21:18:48.431Z,101144.47
2019-03-01T21:21:14.407Z,101138.77
2019-03-01T21:23:40.376Z,101140.11
2019-03-01T21:26:06.414Z,101138.77
2019-03-01T21:28:33.719Z,101145.46
2019-03-01T21:30:59.974Z,101141.10
2019-03-01T21:33:27.468Z,101139.42
2019-03-01T21:35:53.483Z,101134.36
2019-03-01T21:38:19.260Z,101142.73
2019-03-01T21:40:46.893Z,101140.57
2019-03-01T21:43:13.111Z,101134.36
2019-03-01T21:45:38.897Z,101153.73
2019-03-01T21:48:04.669Z,101146.22
2019-03-01T21:50:30.805Z,101150.41
2019-03-01T21:52:56.589Z,101147.37
2019-03-01T21:56:04.508Z,101151.56
2019-03-01T21:59:13.768Z,101153.73
2019-03-01T22:01:41.452Z,101151.05
2019-03-01T22:04:08.873Z,101154.42
2019-03-01T22:06:34.870Z,101154.59
2019-03-01T22:09:00.974Z,101153.09
2019-03-01T22:11:29.298Z,101161.92
2019-03-01T22:13:55.232Z,101159.13
2019-03-01T22:16:21.256Z,101165.87
2019-03-01T22:18:47.037Z,101163.97
2019-03-01T22:21:12.835Z,101159.24
2019-03-01T22:23:38.666Z,101167.45
2019-03-01T22:26:04.459Z,101169.19
2019-03-01T22:28:37.347Z,101164.54
2019-03-01T22:31:03.145Z,101164.08
2019-03-01T22:33:29.213Z,101163.73
2019-03-01T22:35:55.292Z,101164.06
2019-03-01T22:38:21.068Z,101156.59
2019-03-01T22:40:46.855Z,101154.93
2019-03-01T22:43:12.696Z,101154.58
2019-03-01T22:45:38.912Z,101157.66
2019-03-01T22:48:08.419Z,101160.05
2019-03-01T22:50:34.161Z,101161.52
2019-03-01T22:53:42.152Z,101160.69
2019-03-01T22:56:12.049Z,101155.69
2019-03-01T22:58:37.583Z,101161.86
2019-03-01T23:01:46.365Z,101150.47
2019-03-01T23:04:12.143Z,101152.02
2019-03-01T23:06:37.937Z,101152.20
2019-03-01T23:09:46.474Z,101147.15
2019-03-01T23:12:14.768Z,101154.48
2019-03-01T23:14:40.827Z,101149.75
2019-03-01T23:17:06.615Z,101152.23
2019-03-01T23:19:32.386Z,101153.94
2019-03-01T23:21:58.189Z,101155.28
2019-03-01T23:24:23.989Z,101151.27
2019-03-01T23:26:49.801Z,101149.91
2019-03-01T23:29:18.806Z,101145.38
2019-03-01T23:31:45.500Z,101149.34
2019-03-01T23:34:11.291Z,101140.78
2019-03-01T23:36:56.974Z,101141.31
2019-03-01T23:39:24.621Z,101141.31
2019-03-01T23:41:50.658Z,101139.84
2019-03-01T23:44:16.450Z,101148.22
2019-03-01T23:46:42.231Z,101139.50
2019-03-01T23:49:08.020Z,101140.84
2019-03-01T23:51:33.872Z,101145.14
2019-03-01T23:53:59.663Z,101146.56
2019-03-01T23:56:26.883Z,101142.17
2019-03-01T23:58:53.167Z,101149.91
